createdAt,value
2023-04-27T00:00:27.117Z,18.17
2023-04-27T00:02:55.317Z,18.23
2023-04-27T00:05:23.453Z,17.48
2023-04-27T00:07:51.371Z,17.79
2023-04-27T00:10:19.342Z,18.56
2023-04-27T00:12:48.709Z,18.42
2023-04-27T00:15:16.530Z,18.63
2023-04-27T00:17:44.504Z,18.77
2023-04-27T00:20:12.956Z,18.21
2023-04-27T00:22:41.017Z,18.03
2023-04-27T00:25:09.792Z,17.94
2023-04-27T00:27:37.638Z,18.39
2023-04-27T00:30:08.268Z,18.06
2023-04-27T00:32:36.241Z,17.76
2023-04-27T00:35:04.398Z,18.40
2023-04-27T00:37:32.443Z,18.34
2023-04-27T00:40:00.263Z,17.99
2023-04-27T00:42:28.038Z,17.74
2023-04-27T00:44:58.535Z,18.38
2023-04-27T00:47:27.879Z,18.20
2023-04-27T00:49:55.889Z,17.88
2023-04-27T00:52:27.096Z,17.60
2023-04-27T00:54:55.361Z,17.65
2023-04-27T00:57:23.364Z,16.00
2023-04-27T00:59:51.384Z,17.75
2023-04-27T01:02:19.440Z,18.16
2023-04-27T01:04:50.462Z,18.12
2023-04-27T01:07:18.592Z,17.47
2023-04-27T01:09:46.597Z,17.62
2023-04-27T01:12:14.507Z,17.86
2023-04-27T01:14:43.712Z,18.60
2023-04-27T01:17:11.912Z,18.11
2023-04-27T01:19:40.355Z,18.15
2023-04-27T01:22:09.599Z,17.47
2023-04-27T01:24:38.847Z,18.13
2023-04-27T01:27:06.888Z,17.51
2023-04-27T01:29:34.774Z,17.52
2023-04-27T01:32:03.671Z,16.88
2023-04-27T01:34:33.380Z,18.17
2023-04-27T01:37:01.148Z,17.89
2023-04-27T01:39:29.078Z,17.33
2023-04-27T01:41:58.659Z,17.03
2023-04-27T01:44:26.629Z,16.83
2023-04-27T01:46:55.350Z,16.28
2023-04-27T01:49:23.337Z,16.83
2023-04-27T01:51:51.441Z,17.42
2023-04-27T01:54:19.210Z,16.90
2023-04-27T01:56:47.033Z,17.05
2023-04-27T01:59:16.333Z,16.80
2023-04-27T02:01:44.155Z,17.69
2023-04-27T02:04:12.587Z,16.56
2023-04-27T02:06:41.267Z,16.70
2023-04-27T02:09:09.333Z,16.83
2023-04-27T02:11:40.690Z,15.91
2023-04-27T02:14:08.579Z,16.36
2023-04-27T02:16:38.079Z,16.28
2023-04-27T02:19:05.987Z,16.58
2023-04-27T02:21:33.999Z,16.36
2023-04-27T02:24:01.938Z,15.56
2023-04-27T02:26:30.120Z,16.05
2023-04-27T02:28:59.350Z,15.83
2023-04-27T02:31:28.138Z,16.43
2023-04-27T02:33:57.237Z,15.97
2023-04-27T02:36:27.754Z,15.74
2023-04-27T02:38:56.371Z,16.15
2023-04-27T02:41:24.442Z,16.68
2023-04-27T02:43:52.688Z,15.89
2023-04-27T02:46:20.596Z,15.16
2023-04-27T02:48:48.442Z,16.26
2023-04-27T02:51:17.651Z,16.40
2023-04-27T02:53:45.434Z,16.70
2023-04-27T02:56:13.295Z,16.44
2023-04-27T02:58:41.309Z,16.64
2023-04-27T03:01:10.612Z,16.81
2023-04-27T03:03:38.682Z,16.53
2023-04-27T03:06:07.271Z,16.59
2023-04-27T03:08:36.678Z,16.84
2023-04-27T03:11:12.670Z,16.72
2023-04-27T03:13:42.628Z,16.60
2023-04-27T03:16:11.870Z,17.27
2023-04-27T03:18:40.481Z,16.83
2023-04-27T03:21:09.417Z,16.86
2023-04-27T03:23:39.177Z,17.04
2023-04-27T03:26:07.765Z,16.30
2023-04-27T03:28:36.130Z,17.01
2023-04-27T03:31:06.881Z,16.98
2023-04-27T03:33:35.150Z,16.31
2023-04-27T03:36:04.636Z,17.00
2023-04-27T03:38:33.141Z,16.71
2023-04-27T03:41:03.122Z,16.47
2023-04-27T03:43:31.091Z,16.58
2023-04-27T03:45:59.171Z,16.37
2023-04-27T03:48:27.692Z,15.85
2023-04-27T03:50:56.806Z,15.71
2023-04-27T03:53:25.123Z,15.99
2023-04-27T03:55:53.496Z,15.59
2023-04-27T03:58:22.790Z,15.32
2023-04-27T04:01:10.230Z,15.46
2023-04-27T04:03:38.690Z,15.82
2023-04-27T04:06:09.215Z,15.92
2023-04-27T04:08:40.283Z,16.60
2023-04-27T04:11:08.388Z,16.07
2023-04-27T04:13:38.736Z,16.41
2023-04-27T04:16:08.370Z,16.08
2023-04-27T04:18:36.958Z,16.39
2023-04-27T04:21:05.724Z,16.70
2023-04-27T04:23:33.963Z,16.43
2023-04-27T04:26:02.321Z,16.57
2023-04-27T04:28:34.543Z,15.32
2023-04-27T04:31:05.598Z,15.59
2023-04-27T04:33:34.051Z,16.15
2023-04-27T04:36:04.581Z,16.36
2023-04-27T04:38:32.950Z,16.20
2023-04-27T04:41:01.517Z,16.28
2023-04-27T04:43:32.802Z,16.10
2023-04-27T04:46:06.434Z,16.69
2023-04-27T04:48:35.463Z,17.28
2023-04-27T04:51:03.271Z,16.97
2023-04-27T04:53:31.356Z,16.23
2023-04-27T04:55:59.262Z,15.76
2023-04-27T04:58:27.495Z,16.09
2023-04-27T05:00:55.304Z,16.75
2023-04-27T05:03:24.833Z,15.49
2023-04-27T05:05:52.716Z,16.05
2023-04-27T05:08:20.590Z,16.24
2023-04-27T05:10:51.443Z,16.16
2023-04-27T05:13:19.371Z,16.62
2023-04-27T05:15:47.390Z,17.05
2023-04-27T05:18:15.301Z,16.38
2023-04-27T05:20:44.780Z,16.46
2023-04-27T05:23:12.580Z,16.95
2023-04-27T05:25:42.393Z,16.95
2023-04-27T05:28:10.867Z,16.22
2023-04-27T05:30:39.109Z,16.36
2023-04-27T05:33:07.519Z,16.46
2023-04-27T05:35:36.147Z,16.31
2023-04-27T05:38:05.491Z,17.07
2023-04-27T05:40:33.335Z,17.66
2023-04-27T05:43:03.450Z,17.86
2023-04-27T05:45:31.437Z,17.68
2023-04-27T05:48:24.834Z,17.57
2023-04-27T05:51:00.357Z,17.54
2023-04-27T05:53:29.608Z,16.92
2023-04-27T05:55:59.209Z,17.48
2023-04-27T05:58:27.038Z,17.81
2023-04-27T06:00:55.148Z,16.96
2023-04-27T06:03:23.222Z,16.07
2023-04-27T06:05:58.169Z,16.32
2023-04-27T06:08:27.265Z,16.93
2023-04-27T06:10:56.602Z,17.74
2023-04-27T06:13:24.770Z,18.05
2023-04-27T06:15:52.892Z,17.58
2023-04-27T06:18:21.128Z,16.86
2023-04-27T06:20:49.028Z,17.61
2023-04-27T06:23:17.035Z,16.05
2023-04-27T06:25:45.115Z,17.38
2023-04-27T06:28:14.285Z,16.57
2023-04-27T06:30:43.312Z,16.97
2023-04-27T06:33:11.912Z,17.73
2023-04-27T06:35:40.308Z,18.32
2023-04-27T06:38:08.365Z,15.91
2023-04-27T06:40:37.027Z,16.69
2023-04-27T06:43:05.066Z,17.87
2023-04-27T06:45:34.350Z,15.80
2023-04-27T06:48:03.123Z,16.15
2023-04-27T06:50:31.325Z,16.17
2023-04-27T06:52:59.308Z,16.24
2023-04-27T06:55:27.243Z,17.24
2023-04-27T06:57:55.313Z,18.63
2023-04-27T07:00:23.394Z,18.99
2023-04-27T07:02:52.925Z,18.10
2023-04-27T07:05:21.305Z,17.83
2023-04-27T07:07:49.257Z,19.55
2023-04-27T07:10:17.314Z,18.99
2023-04-27T07:12:45.483Z,18.88
2023-04-27T07:15:13.666Z,16.71
2023-04-27T07:17:41.816Z,17.93
2023-04-27T07:20:11.544Z,18.79
2023-04-27T07:22:39.885Z,19.29
2023-04-27T07:25:08.437Z,20.04
2023-04-27T07:27:36.685Z,19.85
2023-04-27T07:30:05.622Z,17.97
2023-04-27T07:32:33.891Z,18.66
2023-04-27T07:35:01.856Z,19.64
2023-04-27T07:37:31.434Z,18.76
2023-04-27T07:40:00.003Z,19.21
2023-04-27T07:42:27.920Z,20.10
2023-04-27T07:44:57.162Z,20.60
2023-04-27T07:47:25.193Z,20.85
2023-04-27T07:49:53.110Z,20.98
2023-04-27T07:52:21.268Z,19.54
2023-04-27T07:54:50.987Z,20.89
2023-04-27T07:57:19.142Z,21.38
2023-04-27T07:59:47.487Z,20.57
2023-04-27T08:02:19.560Z,19.40
2023-04-27T08:04:48.922Z,20.19
2023-04-27T08:07:17.950Z,19.46
2023-04-27T08:09:46.162Z,19.34
2023-04-27T08:12:15.400Z,19.54
2023-04-27T08:14:43.187Z,20.27
2023-04-27T08:17:11.338Z,19.55
2023-04-27T08:19:39.203Z,19.13
2023-04-27T08:22:07.035Z,18.36
2023-04-27T08:24:34.967Z,16.86
2023-04-27T08:27:03.336Z,16.59
2023-04-27T08:29:32.718Z,16.97
2023-04-27T08:32:02.806Z,18.24
2023-04-27T08:34:31.017Z,19.11
2023-04-27T08:36:58.953Z,20.43
2023-04-27T08:39:26.783Z,21.06
2023-04-27T08:41:54.605Z,19.43
2023-04-27T08:44:22.729Z,18.92
2023-04-27T08:46:52.228Z,21.23
2023-04-27T08:49:20.808Z,20.42
2023-04-27T08:51:48.918Z,18.99
2023-04-27T08:54:16.853Z,18.30
2023-04-27T08:56:44.848Z,18.49
2023-04-27T08:59:17.244Z,21.00
2023-04-27T09:01:46.918Z,20.28
2023-04-27T09:04:17.749Z,19.73
2023-04-27T09:06:46.202Z,20.94
2023-04-27T09:09:23.426Z,21.42
2023-04-27T09:11:51.447Z,23.43
2023-04-27T09:14:20.985Z,22.96
2023-04-27T09:16:57.379Z,21.32
2023-04-27T09:19:27.505Z,20.98
2023-04-27T09:22:05.365Z,21.46
2023-04-27T09:24:33.607Z,20.42
2023-04-27T09:27:01.696Z,21.01
2023-04-27T09:29:36.644Z,21.13
2023-04-27T09:32:17.201Z,20.50
2023-04-27T09:34:46.573Z,21.27
2023-04-27T09:37:15.536Z,21.16
2023-04-27T09:39:43.827Z,21.28
2023-04-27T09:42:13.479Z,22.18
2023-04-27T09:44:41.328Z,21.31
2023-04-27T09:47:10.745Z,21.23
2023-04-27T09:49:38.921Z,20.07
2023-04-27T09:52:08.175Z,20.02
2023-04-27T09:54:37.600Z,20.12
2023-04-27T09:57:15.924Z,21.88
2023-04-27T10:00:02.860Z,21.61
2023-04-27T10:02:52.759Z,21.70
2023-04-27T10:05:37.005Z,21.01
2023-04-27T10:08:07.496Z,21.98
2023-04-27T10:10:44.477Z,21.09
2023-04-27T10:13:22.789Z,22.95
2023-04-27T10:15:51.249Z,22.11
2023-04-27T10:18:30.608Z,23.74
2023-04-27T10:20:59.144Z,23.15
2023-04-27T10:23:29.177Z,20.85
2023-04-27T10:25:57.229Z,22.63
2023-04-27T10:28:25.205Z,20.85
2023-04-27T10:30:53.360Z,19.14
2023-04-27T10:33:23.809Z,19.39
2023-04-27T10:35:56.552Z,21.06
2023-04-27T10:38:31.367Z,22.36
2023-04-27T10:41:01.889Z,23.20
2023-04-27T10:43:32.310Z,24.16
2023-04-27T10:46:09.282Z,24.15
2023-04-27T10:48:37.383Z,24.73
2023-04-27T10:51:06.596Z,24.89
2023-04-27T10:53:39.030Z,25.41
2023-04-27T10:56:08.034Z,26.00
2023-04-27T10:58:48.161Z,25.20
2023-04-27T11:01:25.419Z,23.00
2023-04-27T11:03:56.473Z,22.92
2023-04-27T11:06:24.639Z,24.89
2023-04-27T11:08:53.958Z,21.06
2023-04-27T11:11:22.601Z,20.73
2023-04-27T11:13:52.741Z,21.72
2023-04-27T11:16:20.848Z,22.44
2023-04-27T11:18:48.953Z,23.69
2023-04-27T11:21:17.741Z,22.94
2023-04-27T11:23:45.837Z,25.58
2023-04-27T11:26:17.219Z,25.36
2023-04-27T11:28:45.860Z,24.47
2023-04-27T11:31:13.906Z,23.13
2023-04-27T11:33:49.813Z,24.12
2023-04-27T11:36:18.160Z,25.12
2023-04-27T11:38:46.614Z,25.96
2023-04-27T11:41:16.071Z,27.47
2023-04-27T11:43:46.276Z,23.91
2023-04-27T11:46:14.216Z,25.14
2023-04-27T11:48:42.213Z,25.80
2023-04-27T11:51:12.496Z,25.71
2023-04-27T11:53:42.558Z,24.78
2023-04-27T11:56:12.234Z,25.40
2023-04-27T11:58:44.348Z,25.07
2023-04-27T12:01:13.062Z,25.59
2023-04-27T12:03:41.796Z,24.97
2023-04-27T12:06:27.609Z,25.38
2023-04-27T12:08:58.357Z,25.42
2023-04-27T12:11:27.720Z,26.10
2023-04-27T12:13:57.872Z,25.26
2023-04-27T12:16:25.964Z,25.56
2023-04-27T12:18:54.033Z,25.26
2023-04-27T12:21:22.250Z,26.67
2023-04-27T12:23:50.184Z,25.55
2023-04-27T12:26:18.495Z,24.62
2023-04-27T12:28:46.591Z,23.73
2023-04-27T12:31:18.874Z,23.26
2023-04-27T12:33:49.367Z,24.11
2023-04-27T12:36:17.584Z,23.62
2023-04-27T12:38:45.782Z,24.89
2023-04-27T12:41:13.838Z,25.34
2023-04-27T12:43:43.660Z,25.82
2023-04-27T12:46:11.888Z,26.31
2023-04-27T12:48:41.520Z,26.04
2023-04-27T12:51:09.619Z,25.85
2023-04-27T12:53:37.691Z,26.17
2023-04-27T12:56:06.663Z,25.32
2023-04-27T12:58:35.110Z,26.21
2023-04-27T13:01:03.242Z,27.66
2023-04-27T13:03:32.786Z,26.84
2023-04-27T13:06:02.258Z,25.38
2023-04-27T13:08:30.851Z,25.65
2023-04-27T13:10:58.923Z,25.43
2023-04-27T13:13:27.100Z,25.47
2023-04-27T13:15:56.406Z,25.17
2023-04-27T13:18:24.631Z,25.84
2023-04-27T13:20:52.721Z,24.72
2023-04-27T13:23:22.737Z,25.41
2023-04-27T13:25:53.703Z,24.39
2023-04-27T13:28:21.841Z,26.74
2023-04-27T13:30:50.078Z,26.24
2023-04-27T13:33:23.266Z,24.19
2023-04-27T13:35:52.126Z,24.22
2023-04-27T13:38:20.916Z,25.12
2023-04-27T13:40:50.433Z,26.10
2023-04-27T13:43:18.458Z,25.60
2023-04-27T13:45:46.377Z,23.93
2023-04-27T13:48:14.285Z,24.37
2023-04-27T13:50:42.236Z,23.74
2023-04-27T13:53:10.266Z,22.83
2023-04-27T13:55:38.230Z,24.04
2023-04-27T13:58:07.924Z,22.72
2023-04-27T14:00:35.862Z,23.53
2023-04-27T14:03:04.942Z,21.96
2023-04-27T14:05:33.025Z,22.06
2023-04-27T14:08:01.120Z,23.14
2023-04-27T14:10:29.111Z,23.20
2023-04-27T14:12:57.942Z,23.87
2023-04-27T14:15:27.491Z,24.93
2023-04-27T14:17:55.450Z,26.16
2023-04-27T14:20:23.459Z,24.78
2023-04-27T14:22:51.448Z,25.48
2023-04-27T14:25:19.649Z,24.21
2023-04-27T14:27:47.707Z,25.11
2023-04-27T14:30:16.337Z,24.18
2023-04-27T14:32:46.201Z,24.81
2023-04-27T14:35:14.154Z,23.48
2023-04-27T14:37:42.046Z,23.52
2023-04-27T14:40:11.080Z,23.96
2023-04-27T14:42:39.011Z,24.10
2023-04-27T14:45:08.198Z,22.15
2023-04-27T14:47:36.040Z,24.66
2023-04-27T14:50:06.571Z,22.86
2023-04-27T14:52:34.429Z,22.49
2023-04-27T14:55:02.243Z,24.32
2023-04-27T14:57:30.415Z,24.12
2023-04-27T14:59:58.999Z,24.70
2023-04-27T15:02:27.442Z,24.20
2023-04-27T15:04:55.478Z,24.90
2023-04-27T15:07:24.881Z,26.16
2023-04-27T15:09:54.213Z,25.09
2023-04-27T15:12:23.023Z,25.56
2023-04-27T15:14:52.765Z,25.35
2023-04-27T15:17:20.714Z,25.94
2023-04-27T15:19:48.642Z,29.10
2023-04-27T15:22:16.471Z,29.85
2023-04-27T15:24:45.762Z,28.52
2023-04-27T15:27:14.162Z,30.65
2023-04-27T15:29:42.518Z,28.50
2023-04-27T15:32:10.750Z,26.77
2023-04-27T15:34:38.723Z,24.85
2023-04-27T15:37:06.820Z,27.11
2023-04-27T15:39:34.780Z,29.71
2023-04-27T15:42:04.725Z,28.69
2023-04-27T15:44:32.678Z,29.43
2023-04-27T15:47:00.759Z,29.37
2023-04-27T15:49:30.136Z,31.40
2023-04-27T15:51:59.271Z,28.69
2023-04-27T15:54:27.308Z,29.44
2023-04-27T15:56:55.408Z,28.57
2023-04-27T15:59:30.844Z,31.00
2023-04-27T16:01:59.734Z,31.79
2023-04-27T16:04:27.934Z,33.12
2023-04-27T16:06:56.050Z,32.62
2023-04-27T16:09:25.538Z,29.73
2023-04-27T16:11:56.012Z,29.05
2023-04-27T16:14:25.662Z,30.55
2023-04-27T16:16:55.017Z,31.70
2023-04-27T16:19:23.534Z,30.02
2023-04-27T16:21:51.574Z,27.05
2023-04-27T16:24:19.953Z,29.02
2023-04-27T16:26:48.524Z,30.11
2023-04-27T16:29:16.730Z,28.57
2023-04-27T16:31:46.558Z,29.96
2023-04-27T16:34:14.494Z,30.74
2023-04-27T16:36:43.336Z,28.81
2023-04-27T16:39:11.549Z,28.76
2023-04-27T16:41:39.798Z,27.83
2023-04-27T16:44:07.679Z,28.20
2023-04-27T16:46:35.895Z,27.49
2023-04-27T16:49:05.273Z,27.63
2023-04-27T16:51:33.849Z,27.49
2023-04-27T16:54:02.572Z,28.27
2023-04-27T16:56:32.509Z,27.69
2023-04-27T16:59:01.154Z,26.85
2023-04-27T17:01:30.056Z,26.41
2023-04-27T17:03:59.000Z,26.80
2023-04-27T17:06:29.978Z,25.93
2023-04-27T17:08:58.649Z,25.10
2023-04-27T17:11:26.713Z,26.05
2023-04-27T17:13:54.782Z,27.07
2023-04-27T17:16:23.491Z,25.13
2023-04-27T17:18:51.431Z,24.76
2023-04-27T17:21:23.080Z,23.92
2023-04-27T17:23:53.208Z,23.67
2023-04-27T17:26:21.725Z,24.38
2023-04-27T17:28:50.356Z,25.32
2023-04-27T17:31:18.496Z,25.52
2023-04-27T17:33:46.720Z,24.73
2023-04-27T17:36:15.025Z,22.89
2023-04-27T17:38:43.038Z,23.89
2023-04-27T17:41:12.150Z,23.77
2023-04-27T17:43:40.061Z,24.01
2023-04-27T17:46:09.710Z,24.43
2023-04-27T17:48:38.078Z,24.30
2023-04-27T17:51:06.096Z,24.27
2023-04-27T17:53:34.149Z,23.05
2023-04-27T17:56:01.953Z,23.20
2023-04-27T17:58:32.420Z,23.72
2023-04-27T18:01:00.974Z,22.88
2023-04-27T18:03:29.096Z,23.41
2023-04-27T18:05:57.298Z,22.09
2023-04-27T18:08:25.091Z,22.58
2023-04-27T18:10:52.943Z,22.46
2023-04-27T18:13:21.119Z,22.20
2023-04-27T18:15:50.623Z,21.77
2023-04-27T18:18:22.590Z,22.15
2023-04-27T18:20:52.837Z,21.99
2023-04-27T18:23:20.957Z,22.89
2023-04-27T18:25:49.597Z,22.35
2023-04-27T18:28:17.660Z,22.29
2023-04-27T18:30:45.520Z,22.55
2023-04-27T18:33:17.379Z,22.23
2023-04-27T18:35:45.320Z,21.80
2023-04-27T18:38:13.145Z,21.83
2023-04-27T18:40:41.528Z,21.91
2023-04-27T18:43:09.949Z,22.51
2023-04-27T18:45:37.892Z,21.94
2023-04-27T18:48:05.992Z,21.87
2023-04-27T18:50:35.367Z,21.83
2023-04-27T18:53:03.247Z,21.69
2023-04-27T18:55:31.534Z,22.70
2023-04-27T18:57:59.405Z,21.71
2023-04-27T19:00:28.604Z,22.44
2023-04-27T19:02:56.845Z,22.09
2023-04-27T19:05:25.064Z,22.04
2023-04-27T19:07:54.599Z,22.58
2023-04-27T19:10:22.427Z,21.38
2023-04-27T19:12:51.279Z,22.45
2023-04-27T19:15:19.013Z,21.50
2023-04-27T19:17:48.757Z,21.51
2023-04-27T19:20:20.776Z,22.13
2023-04-27T19:22:48.800Z,22.12
2023-04-27T19:25:17.999Z,21.63
2023-04-27T19:27:46.149Z,22.31
2023-04-27T19:30:14.175Z,21.88
2023-04-27T19:32:43.508Z,21.92
2023-04-27T19:35:12.492Z,21.93
2023-04-27T19:37:40.374Z,21.36
2023-04-27T19:40:09.450Z,21.23
2023-04-27T19:42:39.180Z,21.13
2023-04-27T19:45:08.430Z,21.63
2023-04-27T19:47:36.404Z,21.35
2023-04-27T19:50:04.918Z,21.38
2023-04-27T19:52:33.067Z,22.42
2023-04-27T19:55:01.004Z,21.89
2023-04-27T19:57:28.859Z,22.20
2023-04-27T19:59:58.164Z,21.45
2023-04-27T20:02:26.201Z,21.81
2023-04-27T20:04:54.563Z,21.34
2023-04-27T20:07:22.942Z,21.35
2023-04-27T20:09:50.814Z,20.68
2023-04-27T20:12:37.389Z,20.07
2023-04-27T20:15:09.494Z,20.76
2023-04-27T20:17:37.717Z,20.93
2023-04-27T20:20:09.996Z,21.02
2023-04-27T20:22:38.304Z,21.15
2023-04-27T20:25:07.886Z,21.42
2023-04-27T20:27:35.957Z,21.72
2023-04-27T20:30:04.189Z,21.95
2023-04-27T20:32:33.528Z,21.17
2023-04-27T20:35:02.569Z,21.37
2023-04-27T20:37:32.141Z,20.83
2023-04-27T20:40:00.916Z,20.93
2023-04-27T20:42:29.563Z,20.49
2023-04-27T20:44:57.470Z,21.12
2023-04-27T20:47:25.886Z,20.48
2023-04-27T20:49:55.126Z,20.70
2023-04-27T20:52:23.108Z,21.35
2023-04-27T20:54:50.997Z,20.38
2023-04-27T20:57:18.988Z,20.19
2023-04-27T20:59:46.914Z,20.71
2023-04-27T21:02:15.192Z,20.44
2023-04-27T21:04:43.251Z,20.64
2023-04-27T21:07:12.872Z,21.66
2023-04-27T21:09:43.115Z,20.98
2023-04-27T21:12:11.288Z,21.32
2023-04-27T21:14:39.502Z,21.26
2023-04-27T21:17:07.719Z,21.17
2023-04-27T21:19:35.860Z,20.33
2023-04-27T21:22:03.834Z,20.41
2023-04-27T21:24:33.174Z,20.66
2023-04-27T21:27:01.396Z,20.89
2023-04-27T21:29:29.278Z,20.63
2023-04-27T21:31:57.131Z,20.34
2023-04-27T21:34:25.104Z,19.42
2023-04-27T21:36:53.057Z,20.26
2023-04-27T21:39:21.240Z,21.25
2023-04-27T21:41:50.486Z,20.59
2023-04-27T21:44:18.387Z,20.57
2023-04-27T21:46:46.493Z,19.90
2023-04-27T21:49:14.502Z,19.45
2023-04-27T21:51:42.418Z,20.12
2023-04-27T21:54:10.607Z,20.09
2023-04-27T21:56:38.746Z,20.46
2023-04-27T21:59:08.106Z,19.99
2023-04-27T22:01:37.828Z,20.05
2023-04-27T22:04:06.382Z,19.91
2023-04-27T22:06:34.461Z,19.85
2023-04-27T22:09:02.908Z,19.63
2023-04-27T22:11:31.309Z,19.78
2023-04-27T22:13:59.287Z,19.26
2023-04-27T22:16:30.153Z,19.80
2023-04-27T22:18:58.530Z,20.38
2023-04-27T22:21:27.283Z,19.80
2023-04-27T22:23:55.353Z,19.77
2023-04-27T22:26:23.533Z,19.80
2023-04-27T22:28:51.460Z,19.22
2023-04-27T22:31:19.470Z,19.42
2023-04-27T22:33:48.771Z,19.34
2023-04-27T22:36:16.678Z,19.73
2023-04-27T22:38:45.011Z,19.97
2023-04-27T22:41:13.035Z,20.19
2023-04-27T22:43:40.912Z,20.07
2023-04-27T22:46:08.816Z,19.59
2023-04-27T22:48:36.913Z,19.76
2023-04-27T22:51:10.604Z,19.54
2023-04-27T22:53:38.834Z,19.79
2023-04-27T22:56:07.769Z,19.35
2023-04-27T22:58:36.663Z,19.11
2023-04-27T23:01:05.060Z,19.19
2023-04-27T23:03:33.243Z,19.25
2023-04-27T23:06:01.425Z,18.95
2023-04-27T23:08:30.838Z,19.34
2023-04-27T23:10:58.836Z,18.98
2023-04-27T23:13:27.836Z,19.18
2023-04-27T23:15:55.899Z,18.61
2023-04-27T23:18:23.962Z,18.93
2023-04-27T23:20:54.628Z,19.15
2023-04-27T23:23:23.099Z,19.36
2023-04-27T23:25:52.521Z,19.85
2023-04-27T23:28:20.812Z,19.95
2023-04-27T23:30:53.868Z,19.40
2023-04-27T23:33:22.124Z,19.18
2023-04-27T23:35:49.893Z,19.48
2023-04-27T23:38:17.948Z,19.24
2023-04-27T23:40:45.744Z,18.42
2023-04-27T23:43:14.949Z,17.94
2023-04-27T23:45:42.912Z,17.92
2023-04-27T23:48:10.739Z,17.77
2023-04-27T23:50:38.588Z,17.32
2023-04-27T23:53:06.388Z,17.76
2023-04-27T23:55:35.559Z,17.53
2023-04-27T23:58:03.606Z,17.92
